Shive, Texas
Current Conditions -  °F | °C
As of 4:15 PM on Tuesday 25 Nov 2014 (Local Time) from KMNZ Reporting Station
Clear Clear  
Wind Chill: 61°   Ceiling: Unl
Heat Index: 61°   Visibility: 10mi
Dew Point: 25°   Wind: 15mph
Humidity: 25%   Direction: 250°WSW
Pressure: 30.19"   Gusts: NA
Location:  31.6401°N, 98.1198°W
Report Text: KMNZ 252215Z AUTO 25013KT 10SM CLR 16/M04 A3019 RMK AO2 T01631037
Loading
Personal Weather Stations






























Interactive Weather Map New forecast layout! Learn more

10-Day Weather Forecast

Advertisements
Track Severe Weather on mobile